createdAt,value
2018-03-28T00:00:49.940Z,100126.88
2018-03-28T00:05:51.297Z,100130.98
2018-03-28T00:10:52.641Z,100123.91
2018-03-28T00:15:54.834Z,100113.48
2018-03-28T00:20:57.002Z,100105.59
2018-03-28T00:25:58.384Z,100101.42
2018-03-28T00:30:59.701Z,100106.07
2018-03-28T00:36:01.104Z,100098.62
2018-03-28T00:41:02.488Z,100073.23
2018-03-28T00:46:03.848Z,100064.55
2018-03-28T00:51:23.685Z,100066.03
2018-03-28T00:56:25.094Z,100054.13
2018-03-28T01:01:27.223Z,100068.95
2018-03-28T01:06:29.189Z,100063.61
2018-03-28T01:11:30.624Z,100059.47
2018-03-28T01:16:32.721Z,100051.95
2018-03-28T01:21:34.089Z,100052.12
2018-03-28T01:26:35.463Z,100048.22
2018-03-28T01:31:36.818Z,100040.53
2018-03-28T01:36:38.916Z,100040.03
2018-03-28T01:41:40.236Z,100042.64
2018-03-28T01:46:41.752Z,100043.13
2018-03-28T01:51:43.178Z,100044.67
2018-03-28T01:56:44.514Z,100038.05
2018-03-28T02:01:45.839Z,100033.62
2018-03-28T02:06:47.181Z,100026.83
2018-03-28T02:11:49.147Z,100025.91
2018-03-28T02:16:50.500Z,100024.31
2018-03-28T02:21:51.842Z,100019.22
2018-03-28T02:26:53.269Z,100021.01
2018-03-28T02:31:54.680Z,100019.41
2018-03-28T02:36:56.054Z,100020.75
2018-03-28T02:41:57.400Z,100022.86
2018-03-28T02:46:58.743Z,100016.16
2018-03-28T02:52:00.083Z,100016.22
2018-03-28T02:57:02.212Z,100000.41
2018-03-28T03:02:03.603Z,100003.45
2018-03-28T03:07:05.675Z,100000.78
2018-03-28T03:12:06.995Z,99993.28
2018-03-28T03:17:09.118Z,99999.42
2018-03-28T03:22:10.449Z,100001.73
2018-03-28T03:27:11.824Z,99997.80
2018-03-28T03:32:13.155Z,99993.52
2018-03-28T03:37:14.484Z,99997.99
2018-03-28T03:42:15.842Z,99998.06
2018-03-28T03:47:18.214Z,100000.72
2018-03-28T03:52:19.601Z,99986.81
2018-03-28T03:57:20.964Z,99988.73
2018-03-28T04:02:22.291Z,99978.88
2018-03-28T04:07:24.311Z,99974.08
2018-03-28T04:12:25.681Z,99978.83
2018-03-28T04:17:27.559Z,99994.75
2018-03-28T04:22:29.897Z,99992.15
2018-03-28T04:27:32.779Z,99990.16
2018-03-28T04:32:34.336Z,99988.23
2018-03-28T04:37:36.630Z,99988.79
2018-03-28T04:42:38.948Z,99959.14
2018-03-28T04:47:41.768Z,99972.72
2018-03-28T04:52:44.149Z,99956.97
2018-03-28T04:57:46.587Z,99959.25
2018-03-28T05:02:49.174Z,99954.73
2018-03-28T05:07:50.753Z,99952.88
2018-03-28T05:12:52.926Z,99946.84
2018-03-28T05:17:56.067Z,99947.28
2018-03-28T05:22:57.952Z,99950.02
2018-03-28T05:28:01.216Z,99951.64
2018-03-28T05:33:03.531Z,99956.36
2018-03-28T05:38:06.132Z,99966.45
2018-03-28T05:43:07.818Z,99964.39
2018-03-28T05:48:10.128Z,99958.43
2018-03-28T05:53:12.096Z,99953.66
2018-03-28T05:58:13.746Z,99956.78
2018-03-28T06:03:16.424Z,99961.06
2018-03-28T06:08:18.665Z,99962.53
2018-03-28T06:13:20.656Z,99956.81
2018-03-28T06:18:22.761Z,99959.31
2018-03-28T06:23:25.256Z,99970.72
2018-03-28T06:28:27.332Z,99974.52
2018-03-28T06:33:30.191Z,99976.56
2018-03-28T06:38:32.240Z,99985.77
2018-03-28T06:43:34.422Z,99979.50
2018-03-28T06:48:37.520Z,99977.94
2018-03-28T06:53:40.443Z,99968.81
2018-03-28T06:58:42.252Z,99969.98
2018-03-28T07:03:43.957Z,99963.94
2018-03-28T07:08:46.108Z,99958.05
2018-03-28T07:13:48.866Z,99957.33
2018-03-28T07:18:50.335Z,99947.00
2018-03-28T07:23:51.692Z,99950.77
2018-03-28T07:28:53.122Z,99954.89
2018-03-28T07:33:54.442Z,99947.69
2018-03-28T07:38:56.654Z,99943.34
2018-03-28T07:43:58.757Z,99941.20
2018-03-28T07:49:00.206Z,99935.09
2018-03-28T07:54:01.604Z,99926.26
2018-03-28T07:59:02.938Z,99933.19
2018-03-28T08:04:05.047Z,99928.17
2018-03-28T08:09:07.137Z,99931.02
2018-03-28T08:14:09.375Z,99935.30
2018-03-28T08:19:12.269Z,99927.94
2018-03-28T08:24:14.347Z,99924.63
2018-03-28T08:29:15.711Z,99921.48
2018-03-28T08:34:17.088Z,99938.72
2018-03-28T08:39:19.175Z,99936.27
2018-03-28T08:44:21.271Z,99930.02
2018-03-28T08:49:22.613Z,99934.09
2018-03-28T08:54:23.944Z,99930.16
2018-03-28T08:59:25.295Z,99933.09
2018-03-28T09:04:26.690Z,99921.09
2018-03-28T09:09:28.039Z,99924.95
2018-03-28T09:14:30.102Z,99925.09
2018-03-28T09:19:31.516Z,99919.85
2018-03-28T09:24:32.858Z,99915.50
2018-03-28T09:29:34.246Z,99913.17
2018-03-28T09:34:35.564Z,99910.56
2018-03-28T09:39:36.900Z,99909.95
2018-03-28T09:44:38.963Z,99918.38
2018-03-28T09:49:40.321Z,99905.74
2018-03-28T09:54:41.747Z,99905.70
2018-03-28T09:59:43.105Z,99903.06
2018-03-28T10:04:48.493Z,99898.59
2018-03-28T10:09:49.892Z,99895.11
2018-03-28T10:14:51.228Z,99897.62
2018-03-28T10:19:52.566Z,99893.63
2018-03-28T10:24:53.929Z,99883.25
2018-03-28T10:29:56.051Z,99888.81
2018-03-28T10:34:57.419Z,99883.06
2018-03-28T10:39:59.487Z,99880.64
2018-03-28T10:45:00.908Z,99871.70
2018-03-28T10:50:03.022Z,99863.41
2018-03-28T10:55:05.152Z,99854.97
2018-03-28T11:00:06.544Z,99848.02
2018-03-28T11:05:07.931Z,99845.99
2018-03-28T11:10:09.263Z,99838.95
2018-03-28T11:15:10.596Z,99832.95
2018-03-28T11:20:12.715Z,99836.95
2018-03-28T11:25:20.931Z,99839.66
2018-03-28T11:30:22.298Z,99826.16
2018-03-28T11:35:23.724Z,99808.00
2018-03-28T11:40:25.098Z,99812.55
2018-03-28T11:45:26.505Z,99811.18
2018-03-28T11:50:27.866Z,99797.84
2018-03-28T11:55:29.214Z,99792.98
2018-03-28T12:00:30.610Z,99788.57
2018-03-28T12:05:31.935Z,99781.02
2018-03-28T12:10:33.283Z,99774.51
2018-03-28T12:15:34.654Z,99767.98
2018-03-28T12:20:36.775Z,99760.45
2018-03-28T12:25:38.895Z,99754.12
2018-03-28T12:30:40.233Z,99749.65
2018-03-28T12:35:41.643Z,99747.09
2018-03-28T12:40:43.743Z,99736.49
2018-03-28T12:45:45.067Z,99725.69
2018-03-28T12:50:46.441Z,99712.05
2018-03-28T12:55:48.578Z,99707.70
2018-03-28T13:00:49.930Z,99700.34
2018-03-28T13:05:51.505Z,99695.04
2018-03-28T13:10:52.864Z,99685.80
2018-03-28T13:15:54.224Z,99678.27
2018-03-28T13:20:56.361Z,99669.52
2018-03-28T13:25:57.869Z,99660.28
2018-03-28T13:30:59.303Z,99648.91
2018-03-28T13:36:00.626Z,99637.61
2018-03-28T13:41:01.963Z,99626.03
2018-03-28T13:46:03.477Z,99612.00
2018-03-28T13:51:05.563Z,99595.20
2018-03-28T13:56:06.945Z,99591.63
2018-03-28T14:01:08.648Z,99579.40
2018-03-28T14:06:10.008Z,99589.53
2018-03-28T14:11:11.337Z,99574.97
2018-03-28T14:16:12.660Z,99561.54
2018-03-28T14:21:13.986Z,99561.56
2018-03-28T14:26:15.339Z,99542.72
2018-03-28T14:31:16.664Z,99530.92
2018-03-28T14:36:18.004Z,99523.42
2018-03-28T14:41:20.079Z,99514.86
2018-03-28T14:46:21.397Z,99503.09
2018-03-28T14:51:23.518Z,99485.59
2018-03-28T14:56:24.927Z,99479.67
2018-03-28T15:01:26.273Z,99470.21
2018-03-28T15:06:27.611Z,99460.00
2018-03-28T15:11:29.013Z,99451.18
2018-03-28T15:16:30.351Z,99442.63
2018-03-28T15:21:31.700Z,99434.81
2018-03-28T15:26:33.035Z,99430.69
2018-03-28T15:31:34.378Z,99421.61
2018-03-28T15:36:35.696Z,99420.18
2018-03-28T15:41:37.045Z,99407.19
2018-03-28T15:46:38.410Z,99386.25
2018-03-28T15:51:39.752Z,99382.76
2018-03-28T15:56:41.133Z,99372.73
2018-03-28T16:01:42.556Z,99383.11
2018-03-28T16:06:43.895Z,99376.94
2018-03-28T16:11:45.458Z,99371.23
2018-03-28T16:16:47.544Z,99378.98
2018-03-28T16:21:48.872Z,99363.55
2018-03-28T16:26:50.630Z,99370.27
2018-03-28T16:31:52.022Z,99357.27
2018-03-28T16:36:53.368Z,99350.05
2018-03-28T16:41:55.314Z,99345.70
2018-03-28T16:46:57.384Z,99341.60
2018-03-28T16:51:58.712Z,99337.53
2018-03-28T16:57:00.966Z,99329.09
2018-03-28T17:02:02.397Z,99319.73
2018-03-28T17:07:04.224Z,99306.36
2018-03-28T17:12:05.574Z,99294.48
2018-03-28T17:17:06.923Z,99287.88
2018-03-28T17:22:08.312Z,99268.44
2018-03-28T17:27:10.408Z,99266.52
2018-03-28T17:32:12.509Z,99272.25
2018-03-28T17:37:13.863Z,99257.53
2018-03-28T17:42:15.207Z,99254.04
2018-03-28T17:47:17.557Z,99221.55
2018-03-28T17:52:19.155Z,99217.91
2018-03-28T17:57:20.560Z,99206.59
2018-03-28T18:02:21.939Z,99184.91
2018-03-28T18:07:23.490Z,99190.67
2018-03-28T18:12:25.820Z,99176.94
2018-03-28T18:17:27.912Z,99177.95
2018-03-28T18:22:29.966Z,99163.20
2018-03-28T18:27:31.563Z,99149.02
2018-03-28T18:32:32.924Z,99137.83
2018-03-28T18:37:34.303Z,99122.88
2018-03-28T18:42:35.751Z,99118.64
2018-03-28T18:47:37.166Z,99118.98
2018-03-28T18:52:38.460Z,99106.56
2018-03-28T18:57:40.746Z,99100.75
2018-03-28T19:02:42.194Z,99089.61
2018-03-28T19:07:43.523Z,99080.59
2018-03-28T19:12:45.864Z,99078.52
2018-03-28T19:17:47.202Z,99080.17
2018-03-28T19:22:48.557Z,99071.13
2018-03-28T19:27:50.753Z,99038.80
2018-03-28T19:32:52.848Z,99042.66
2018-03-28T19:37:54.321Z,99025.11
2018-03-28T19:42:55.704Z,99029.50
2018-03-28T19:47:57.117Z,99021.90
2018-03-28T19:52:58.477Z,99007.81
2018-03-28T19:57:59.811Z,99001.65
2018-03-28T20:03:01.138Z,98991.86
2018-03-28T20:08:02.528Z,98986.47
2018-03-28T20:13:03.840Z,98983.52
2018-03-28T20:18:05.185Z,98985.48
2018-03-28T20:23:07.234Z,98983.09
2018-03-28T20:28:08.588Z,98975.61
2018-03-28T20:33:09.998Z,98961.38
2018-03-28T20:38:11.356Z,98945.38
2018-03-28T20:43:12.675Z,98935.08
2018-03-28T20:48:13.984Z,98933.59
2018-03-28T20:53:15.309Z,98931.94
2018-03-28T20:58:16.618Z,98927.31
2018-03-28T21:03:18.787Z,98939.84
2018-03-28T21:08:20.138Z,98937.52
2018-03-28T21:13:21.464Z,98947.67
2018-03-28T21:18:23.017Z,98942.52
2018-03-28T21:23:24.427Z,98951.72
2018-03-28T21:28:25.868Z,98956.39
2018-03-28T21:33:27.174Z,98983.83
2018-03-28T21:38:29.456Z,98989.19
2018-03-28T21:43:31.535Z,98995.75
2018-03-28T21:48:32.853Z,98986.20
2018-03-28T21:53:34.165Z,98991.41
2018-03-28T21:58:36.265Z,99008.42
2018-03-28T22:03:38.315Z,99021.61
2018-03-28T22:08:39.642Z,99023.81
2018-03-28T22:13:40.961Z,99036.70
2018-03-28T22:18:43.048Z,99054.19
2018-03-28T22:23:44.385Z,99061.54
2018-03-28T22:28:45.757Z,99068.90
2018-03-28T22:33:47.118Z,99072.15
2018-03-28T22:38:48.431Z,99086.66
2018-03-28T22:43:50.548Z,99110.28
2018-03-28T22:48:51.881Z,99122.55
2018-03-28T22:53:53.209Z,99144.84
2018-03-28T22:58:55.342Z,99178.08
2018-03-28T23:03:56.687Z,99191.27
2018-03-28T23:08:58.034Z,99209.41
2018-03-28T23:13:59.391Z,99233.31
2018-03-28T23:19:01.500Z,99239.82
2018-03-28T23:24:02.915Z,99250.88
2018-03-28T23:29:04.247Z,99268.51
2018-03-28T23:34:05.554Z,99286.73
2018-03-28T23:39:06.931Z,99310.09
2018-03-28T23:44:08.276Z,99312.92
2018-03-28T23:49:09.598Z,99338.17
2018-03-28T23:54:10.942Z,99345.84
2018-03-28T23:59:12.270Z,99369.17
